Weather observations for the past three days for
Watauga County Hospital Heliport
Metric (Imperial)
Date Time (edt) Wind (kph) Vis. (km) Weather Sky Cond. Temperature (ºC) Relative Humidity Wind Chill (°C) Heat Index (°C) Pressure Precipitation (cm)
Air Dwpt 6 hour altimeter (cm) sea level (mb) 1 hr 3 hr 6 hr
Max. Min.
01 15:15 Calm 16.09 NULL NULL 29.7 16.6 45% 30 76.84 0.0
01 14:55 Calm 16.09 NULL NULL 29.7 17.1 47% 30 76.84 0.0
01 14:35 Calm 16.09 NULL NULL 28.6 16.1 47% 29 76.86 0.0
01 14:15 Calm 16.09 NULL NULL 28.7 17.4 50% 29 76.86 0.0
01 13:55 Calm 16.09 NULL NULL 28.5 16.6 28.6 16.3 49% 29 76.86 0.0
01 13:35 Calm 16.09 NULL NULL 28.3 17 50% 29 76.86 0.0
01 13:15 Calm 16.09 NULL NULL 28 17.3 52% 29 76.89 0.0
01 12:55 Calm 16.09 NULL NULL 28 16.8 51% 29 76.89 0.0
01 12:35 Calm 16.09 NULL NULL 28.1 16.8 50% 29 76.91 0.0
01 12:15 Calm 16.09 NULL NULL 27.9 16.9 51% 28 76.91 0.0
01 11:55 Calm 16.09 NULL NULL 27.3 17.4 55% 28 76.94 0.0
01 11:35 Calm 16.09 NULL NULL 27.4 17.8 56% 28 76.94 0.0
01 11:15 Calm 16.09 NULL NULL 26.1 17.9 61% 27 76.94 0.0
01 10:55 Calm 16.09 NULL NULL 25.5 17.7 62% 26 76.94 0.0
01 10:35 Calm 16.09 NULL NULL 25.1 17.7 64% 26 76.94 0.0
01 10:15 Calm 16.09 NULL NULL 24.7 17.6 65% 26 76.94 0.0
01 09:55 Calm 16.09 NULL NULL 24.1 17.6 67% 25 76.94 0.0
01 09:35 Calm 16.09 NULL NULL 23.4 17.6 70% 76.94 0.0
01 09:15 Calm 16.09 NULL NULL 20.7 20.7 100% 76.94 0.0
01 08:55 Calm 16.09 NULL NULL 18.8 18.8 100% 76.94 0.0
01 08:35 Calm 16.09 NULL NULL 17.8 17.8 100% 76.94 0.0
01 08:15 Calm 11.27 NULL NULL 17 17 100% 76.94 0.0
01 07:55 Calm 6.44 Fog/Mist NULL 16.3 16.3 18 15.5 100% 76.91 0.0
01 07:35 Calm 4.83 Fog/Mist NULL 15.8 15.8 100% 76.89 0.0
01 07:15 Calm 4.02 Fog/Mist NULL 15.5 15.5 100% 76.86 0.0
01 06:55 Calm 8.05 Fog/Mist NULL 16.1 16.1 100% 76.86 0.0
01 06:35 Calm 4.02 Fog/Mist NULL 15.8 15.8 100% 76.86 0.0
01 06:15 Calm 3.22 Fog/Mist NULL 16 16 100% 76.84 0.0
01 05:55 Calm 2.01 Fog/Mist NULL 16.3 16.3 100% 76.84 0.0
01 05:35 Calm 8.05 Fog/Mist NULL 16.3 16.3 100% 76.84 0.0
01 05:15 Calm 6.44 Fog/Mist NULL 16.5 16.5 100% 76.84 0.0
01 04:55 Calm 3.22 Fog/Mist NULL 16.6 16.6 100% 76.86 0.0
01 04:35 Calm 4.02 Fog/Mist NULL 16.7 16.7 100% 76.84 0.0
01 04:15 Calm 4.83 Fog/Mist NULL 16.8 16.8 100% 76.84 0.0
01 03:55 Calm 2.01 Fog/Mist NULL 16.8 16.8 100% 76.86 0.0
01 03:35 Calm 4.02 Fog/Mist NULL 16.9 16.9 100% 76.86 0.0
01 03:15 Calm 2.01 Fog/Mist NULL 17 17 100% 76.89 0.0
01 02:55 Calm 4.83 Fog/Mist NULL 17.4 17.4 100% 76.89 0.0
01 02:35 Calm 6.44 Fog/Mist NULL 17.2 17.2 100% 76.91 0.0
01 02:15 Calm 2.01 Fog/Mist NULL 17.2 17.2 100% 76.91 0.0
01 01:55 Calm 11.27 NULL NULL 17.8 17.8 23.5 17.5 100% 76.91 0.0
01 01:35 Calm 4.83 Fog/Mist NULL 17.6 17.6 100% 76.91 0.0
01 01:15 Calm 4.83 Fog/Mist NULL 17.7 17.7 100% 76.91 0.0
01 00:55 Calm 8.05 Fog/Mist NULL 18.2 18.2 100% 76.94 0.0
01 00:35 Calm 8.05 Fog/Mist NULL 18.5 18.5 100% 76.91 0.0
01 00:15 Calm 6.44 Fog/Mist NULL 18.5 18.5 100% 76.89 0.0
31 23:55 Calm 16.09 NULL NULL 18.8 18.8 100% 76.89 0.0
31 23:35 Calm 16.09 NULL NULL 19.5 19.5 100% 76.89 0.0
31 23:15 Calm 6.44 Fog/Mist NULL 18.9 18.9 100% 76.89 0.0
31 22:55 Calm 16.09 NULL NULL 19.5 19.5 100% 76.89 0.0
31 22:35 Calm 16.09 NULL NULL 20 20 100% 76.89 0.0
31 22:15 Calm 16.09 NULL NULL 20.1 20.1 100% 76.89 0.0
31 21:55 Calm 16.09 NULL NULL 20.2 20.2 100% 76.89 0.0
31 21:35 Calm 16.09 NULL NULL 20.5 20.5 100% 76.86 0.0
31 21:15 Calm 16.09 NULL NULL 20.7 20.7 100% 76.86 0.0
31 20:55 Calm 16.09 NULL NULL 21.3 20.9 98% 76.86 0.0
31 20:35 Calm 16.09 NULL NULL 21.7 19.2 86% 76.86 0.0
31 20:15 Calm 16.09 NULL NULL 23 19.1 79% 76.84 0.0
31 19:35 Calm 16.09 NULL NULL 25.7 17.6 61% 27 76.84 0.0
31 19:15 Calm 16.09 NULL NULL 26.2 17.1 57% 27 76.84 0.0
31 18:55 Calm 16.09 NULL NULL 26.5 17.6 58% 27 76.84 0.0
31 18:15 Calm 16.09 NULL NULL 25.6 18.5 65% 27 76.84 0.0
31 17:55 Calm 16.09 NULL NULL 25.2 19 69% 26 76.84 0.0
31 17:35 Calm 16.09 NULL NULL 25.9 18.4 63% 27 76.86 0.0
31 17:15 Calm 16.09 NULL NULL 25.2 18.4 66% 26 76.86 0.0
31 16:55 Calm 16.09 NULL NULL 26.2 18 61% 27 76.84 0.0
31 16:35 Calm 16.09 NULL NULL 27.5 19.3 61% 29 76.86 0.0
31 16:15 Calm 16.09 NULL NULL 26.9 19.5 64% 28 76.86 0.0
31 15:55 Calm 16.09 NULL NULL 26.2 18.8 64% 27 76.86 0.0
31 15:35 Calm 16.09 NULL NULL 27.5 14.8 46% 28 76.86 0.0
31 15:15 Calm 16.09 NULL NULL 27.8 16.5 50% 28 76.89 0.0
31 14:55 Calm 16.09 NULL NULL 27.6 16.7 51% 28 76.91 0.0
31 14:15 Calm 16.09 NULL NULL 26.2 16.2 54% 27 76.91 0.0
31 13:55 Calm 16.09 NULL NULL 26.3 15.9 27.6 16.1 53% 27 76.91 0.0
31 13:35 Calm 16.09 NULL NULL 27.6 15.8 49% 28 76.94 0.0
31 13:15 Calm 16.09 NULL NULL 25.9 16 54% 27 76.94 0.0
31 12:55 Calm 16.09 NULL NULL 27.1 16.3 52% 28 76.94 0.0
31 12:35 Calm 16.09 NULL NULL 26.1 16.7 56% 27 76.96 0.0
31 12:15 Calm 16.09 NULL NULL 25.5 17.5 61% 26 76.96 0.0
31 11:55 Calm 16.09 NULL NULL 26.5 17.8 59% 27 76.94 0.0
31 11:35 Calm 16.09 NULL NULL 26.4 17.9 60% 27 76.96 0.0
31 11:15 Calm 16.09 NULL NULL 25.7 18 63% 27 76.94 0.0
31 10:55 Calm 16.09 NULL NULL 25.5 18.1 64% 27 76.94 0.0
31 10:35 Calm 16.09 NULL NULL 25.1 17.8 64% 26 76.94 0.0
31 10:15 Calm 16.09 NULL NULL 23.7 17.9 70% 76.94 0.0
31 09:55 Calm 16.09 NULL NULL 22.9 17.9 74% 76.94 0.0
31 09:35 Calm 16.09 NULL NULL 22.4 18 76% 76.96 0.0
31 09:15 Calm 16.09 NULL NULL 21.5 18.8 85% 76.96 0.0
31 08:55 Calm 16.09 NULL NULL 19.4 19.4 100% 76.94 0.0
31 08:35 Calm 11.27 NULL NULL 17.6 17.6 100% 76.94 0.0
31 08:15 Calm 11.27 NULL NULL 16.7 16.7 100% 76.94 0.0
31 07:55 Calm 11.27 NULL NULL 16.1 16.1 18 14.9 100% 76.94 0.0
31 07:35 Calm 6.44 Fog/Mist NULL 15.7 15.7 100% 76.94 0.0
31 07:15 Calm 2.01 Fog/Mist NULL 15.3 15.3 100% 76.91 0.0
31 06:55 Calm 2.82 Fog/Mist NULL 15 15 100% 76.91 0.0
31 06:35 Calm 3.22 Fog/Mist NULL 15.4 15.4 100% 76.89 0.0
31 06:15 Calm 6.44 Fog/Mist NULL 15.5 15.5 100% 76.89 0.0
31 05:55 Calm 4.83 Fog/Mist NULL 15.6 15.6 100% 76.89 0.0
31 05:35 Calm 8.05 Fog/Mist NULL 15.8 15.8 100% 76.86 0.0
31 05:15 Calm 8.05 Fog/Mist NULL 16.1 16.1 100% 76.86 0.0
31 04:55 Calm 16.09 NULL NULL 16.4 16.4 100% 76.86 0.0
31 04:35 Calm 4.83 Fog/Mist NULL 16.3 16.3 100% 76.86 0.0
31 04:15 Calm 6.44 Fog/Mist NULL 17 17 100% 76.86 0.0
31 03:55 Calm 8.05 Fog/Mist NULL 16.9 16.9 100% 76.86 0.0
31 03:35 Calm 8.05 Fog/Mist NULL 17 17 100% 76.89 0.0
31 03:15 Calm 16.09 NULL NULL 17.6 17.6 100% 76.86 0.0
31 02:55 Calm 16.09 NULL NULL 17.6 17.6 100% 76.89 0.0
31 02:35 Calm 8.05 Fog/Mist NULL 17.6 17.6 100% 76.89 0.0
31 02:15 Calm 11.27 NULL NULL 17.6 17.6 100% 76.89 0.0
31 01:55 Calm 11.27 NULL NULL 18 18 21.2 18 100% 76.91 0.0
31 01:35 Calm 6.44 Fog/Mist NULL 18.5 18.5 100% 76.94 0.0
31 01:15 Calm 2.01 Fog/Mist NULL 18.6 18.6 100% 76.94 0.0
31 00:55 Calm 4.02 Fog/Mist NULL 18.6 18.6 100% 76.91 0.0
31 00:35 Calm 0.80 Fog NULL 18.8 18.8 100% 76.91 0.0
31 00:15 Calm 0.80 Fog NULL 19 19 100% 76.91 0.0
30 23:55 Calm 0.80 Fog NULL 19.1 19.1 100% 76.94 0.0
30 23:15 Calm 11.27 NULL NULL 18.8 18.8 100% 76.96 0.0
30 22:55 Calm 16.09 NULL NULL 19.3 19.3 100% 76.94 0.0
30 22:35 Calm 8.05 Fog/Mist NULL 19.1 19.1 100% 76.94 0.0
30 22:15 Calm 16.09 NULL NULL 19.6 19.6 100% 76.94 0.0
30 21:55 Calm 16.09 NULL NULL 20.1 20.1 100% 76.94 0.0
30 21:35 Calm 11.27 NULL NULL 19.5 19.5 100% 76.94 0.0
30 21:15 Calm 16.09 NULL NULL 19.6 19.6 100% 76.94 0.0
30 20:55 Calm 16.09 NULL NULL 19.8 19.8 100% 76.89 0.0
30 20:35 Calm 16.09 NULL NULL 20.2 20.2 100% 76.89 0.0
30 20:15 Calm 16.09 NULL NULL 20.5 20.5 100% 76.89 0.0
30 19:55 Calm 16.09 NULL NULL 21 21 28 21 100% 76.86 0.0 0.1
30 19:35 Calm 16.09 NULL NULL 21.8 18.9 84% 76.89 0.0
30 19:15 Calm 16.09 NULL NULL 23.5 18.2 72% 76.86 0.0
30 18:55 Calm 16.09 NULL NULL 23.4 18.6 75% 76.86 0.0
30 18:35 Calm 16.09 NULL NULL 23.4 18.7 75% 76.86 0.0
30 18:15 Calm 16.09 NULL NULL 22.3 21.9 98% 76.89 0.0
30 17:55 Calm 8.05 Light Rain NULL 21.4 21.4 100% 76.89 0.0 0.1
30 17:35 Calm 11.27 Rain NULL 22.8 19.6 82% 76.89 0.0 0.03
30 17:15 Calm 16.09 Light Rain NULL 24 17.5 67% 25 76.89 0.0
30 16:55 Calm 16.09 NULL NULL 24.8 17.6 64% 26 76.86 0.0
30 16:35 Calm 16.09 NULL NULL 26.6 18.2 60% 28 76.86 0.0
30 16:15 Calm 16.09 NULL NULL 27.5 18.5 58% 29 76.86 0.0
30 15:55 Calm 16.09 NULL NULL 27.6 18.5 58% 29 76.86 0.0
30 15:35 Calm 16.09 NULL NULL 25.8 18.4 64% 27 76.89 0.0
30 15:15 Calm 16.09 NULL NULL 26.1 18 61% 27 76.91 0.0
30 14:55 Calm 16.09 NULL NULL 25.5 18.6 66% 27 76.94 0.0
30 14:35 Calm 16.09 NULL NULL 24 18.3 71% 25 76.96 0.0
30 14:15 Calm 16.09 NULL NULL 25.3 19 68% 26 76.96 0.0
30 13:55 Calm 16.09 NULL NULL 26.6 19.4 26.6 17.5 65% 28 76.99 0.0
30 13:35 Calm 16.09 NULL NULL 25.8 19.2 67% 27 77.01 0.0
30 13:15 Calm 16.09 NULL NULL 25.8 19.1 67% 27 77.01 0.0
30 12:55 Calm 16.09 NULL NULL 25.9 18.5 64% 27 77.04 0.0
30 12:35 Calm 16.09 NULL NULL 25.8 18.8 65% 27 77.04 0.0
30 12:15 Calm 16.09 NULL NULL 25 18.4 67% 26 77.04 0.0
30 11:55 Calm 16.09 NULL NULL 24.5 19 72% 25 77.04 0.0
30 11:35 Calm 16.09 NULL NULL 23.5 18.9 75% 77.06 0.0
30 11:15 Calm 16.09 NULL NULL 22.6 18.5 78% 77.06 0.0
30 10:55 Calm 16.09 NULL NULL 22.5 18.9 80% 77.06 0.0
30 10:35 Calm 16.09 NULL NULL 22.5 18.8 80% 77.06 0.0
30 10:15 Calm 16.09 NULL NULL 21.3 19 87% 77.04 0.0
30 09:55 Calm 16.09 NULL NULL 21.4 18.1 82% 77.04 0.0
30 09:35 Calm 16.09 NULL NULL 21.1 19.1 88% 77.04 0.0
30 09:15 Calm 16.09 NULL NULL 20.2 20.2 100% 77.06 0.0
30 08:55 Calm 11.27 NULL NULL 18.4 18.4 100% 77.06 0.0
30 08:35 Calm 4.83 Fog/Mist NULL 18.1 18.1 100% 77.09 0.0
30 08:15 Calm 2.41 Fog/Mist NULL 17.7 17.7 100% 77.06 0.0
30 07:55 Calm 1.61 Fog/Mist NULL 17.4 17.4 18.5 17.3 100% 77.01 0.0
30 07:35 Calm 3.22 Fog/Mist NULL 17.6 17.6 100% 77.01 0.0
30 07:15 Calm 4.83 Fog/Mist NULL 17.9 17.9 100% 76.99 0.0
30 06:55 Calm 8.05 Fog/Mist NULL 17.9 17.9 100% 76.96 0.0
30 06:35 Calm 4.02 Fog/Mist NULL 17.8 17.8 100% 76.96 0.0
30 06:15 Calm 4.83 Fog/Mist NULL 17.7 17.7 100% 76.94 0.0
30 05:55 Calm 2.82 Fog/Mist NULL 17.7 17.7 100% 76.94 0.0
30 05:35 Calm 4.83 Fog/Mist NULL 17.8 17.8 100% 76.96 0.0
30 05:15 Calm 8.05 Fog/Mist NULL 18.2 18.2 100% 76.99 0.0
30 04:55 Calm 11.27 NULL NULL 18.2 18.2 100% 76.99 0.0
30 04:35 Calm 8.05 Fog/Mist NULL 18 18 100% 76.96 0.0
30 04:15 Calm 11.27 NULL NULL 18.1 18.1 100% 76.96 0.0
30 03:55 Calm 8.05 Fog/Mist NULL 17.8 17.8 100% 76.96 0.0
30 03:35 Calm 11.27 NULL NULL 18 18 100% 76.99 0.0
30 03:15 Calm 11.27 NULL NULL 18 18 100% 76.99 0.0
30 02:55 Calm 8.05 Fog/Mist NULL 17.7 17.7 100% 76.99 0.0
30 02:35 Calm 11.27 NULL NULL 18 18 100% 76.99 0.0
30 02:15 Calm 16.09 NULL NULL 18.2 18.2 100% 77.01 0.0
30 01:55 Calm 16.09 NULL NULL 18.5 18.5 21.1 17.9 100% 77.01 0.0
30 01:35 Calm 16.09 NULL NULL 18.6 18.6 100% 77.04 0.0
30 01:15 Calm 16.09 NULL NULL 19.3 19.1 99% 77.04 0.0
30 00:55 Calm 16.09 NULL NULL 20 18.3 90% 77.04 0.0
30 00:35 Calm 16.09 NULL NULL 19.4 19.4 100% 77.04 0.0
30 00:15 Calm 16.09 NULL NULL 19 19 100% 77.04 0.0
29 23:55 Calm 16.09 NULL NULL 18.4 18.4 100% 77.04 0.0
29 23:35 Calm 16.09 NULL NULL 18.7 18.7 100% 77.04 0.0
29 23:15 Calm 11.27 NULL NULL 18.4 18.4 100% 77.06 0.0
29 22:55 Calm 11.27 NULL NULL 18.4 18.4 100% 77.04 0.0
29 22:35 Calm 11.27 NULL NULL 18.4 18.4 100% 77.01 0.0
29 22:15 Calm 11.27 NULL NULL 18.5 18.5 100% 77.01 0.0
29 21:55 Calm 16.09 NULL NULL 19.1 19.1 100% 76.99 0.0
29 21:35 Calm 16.09 NULL NULL 19 19 100% 76.99 0.0
29 21:15 Calm 16.09 NULL NULL 19 19 100% 76.96 0.0
29 20:55 Calm 16.09 NULL NULL 19.5 19.5 100% 76.94 0.0
29 20:15 Calm 16.09 NULL NULL 20.1 20 99% 76.91 0.0
29 19:55 Calm 16.09 NULL NULL 21.2 18.1 26.5 21.2 83% 76.91 0.0
29 19:35 Calm 16.09 NULL NULL 21.7 18.1 80% 76.91 0.0
29 19:15 Calm 16.09 NULL NULL 22.7 18.2 76% 76.91 0.0
29 18:55 Calm 16.09 NULL NULL 23.5 18.3 73% 76.91 0.0
29 18:35 Calm 16.09 NULL NULL 23.1 18.3 74% 76.91 0.0
29 18:15 Calm 16.09 NULL NULL 23.1 17.7 72% 76.91 0.0
29 17:55 Calm 16.09 NULL NULL 24.6 18.5 69% 26 76.89 0.0
29 17:35 Calm 16.09 NULL NULL 24.7 18.8 70% 26 76.89 0.0
29 17:15 Calm 16.09 NULL NULL 25.2 18.6 67% 26 76.89 0.0
29 16:55 Calm 16.09 NULL NULL 23.9 17.5 68% 25 76.89 0.0
29 16:35 Calm 16.09 NULL NULL 26.2 18.2 61% 27 76.91 0.0
29 16:15 Calm 16.09 NULL NULL 25.6 18 63% 27 76.91 0.0
29 15:55 Calm 16.09 NULL NULL 26.5 18.4 61% 28 76.91 0.0
29 15:35 Calm 16.09 NULL NULL 26 19.2 66% 27 76.94 0.0
Date Time (edt) Wind (kph) Vis. (km) Weather Sky Cond. Air Dwpt Max. Min. Relative Humidity Wind Chill (°C) Heat Index (°C) altimeter (cm) sea level (mb) 1 hr 3 hr 6 hr
6 hour
Temperature (ºC) Pressure Precipitation (cm)